AirNav   TITAN Aviation Fuels
 
 1421 users online  

5HO Hope Airport
Hope, Alaska, USA

GOING TO HOPE?


FAA INFORMATION EFFECTIVE 22 APRIL 2021

Location

FAA Identifier: 5HO
Lat/Long: 60-54-26.1100N 149-37-22.1200W
60-54.435167N 149-37.368667W
60.9072528,-149.6228111
(estimated)
Elevation: 193.9 ft. / 59 m (estimated)
Variation: 25E (1985)
From city: 1 mile SE of HOPE, AK
Time zone: UTC -8 (UTC -9 during Standard Time)
Zip code: 99605

Airport Operations

Airport use: Open to the public
Activation date: 11/1950
Control tower: no
ARTCC: ANCHORAGE CENTER
FSS: KENAI FLIGHT SERVICE STATION [907-283-7211]
NOTAMs facility: ENA (NOTAM-D service available)
Attendance: UNATNDD
Wind indicator: yes, WINDSOCKS LOCATED AT BOTH ENDS OF RWY 17/35.
Segmented circle: yes

Airport Communications

CTAF: 122.9
WX ASOS at ANC (19 nm NW): PHONE 907-271-5278
WX ASOS at MRI (19 nm N): 124.25 (907-271-5277)
WX ASOS at LHD (19 nm NW): PHONE 907-245-5432

Nearby radio navigation aids

VOR radial/distance  VOR name  Freq  Var
TEDr130/18.5ANCHORAGE VOR/DME113.1518E

Airport Services

Airframe service: NONE
Powerplant service: NONE
Bottled oxygen: NONE
Bulk oxygen: NONE

Runway Information

Runway 17/35

Dimensions: 2040 x 60 ft. / 622 x 18 m
Surface: gravel, in fair condition
Runway edge markings: NSTD MKGS RYS 17 & 35; RWY THLDS MKD WITH PLASTIC MARKERS.
RUNWAY 17  RUNWAY 35
Latitude: 60-54.601333N60-54.269000N
Longitude: 149-37.327333W149-37.410000W
Elevation: 159.3 ft.193.9 ft.
Traffic pattern: leftleft
Markings: NSTDNSTD
Obstructions: 57 ft. trees, 110 ft. left and right of centerline53 ft. trees, 110 ft. left and right of centerline

Airport Ownership and Management from official FAA records

Ownership: Publicly-owned
Owner: ALASKA DOT&PF CENTRAL REGION
P.O. BOX 196900
ANCHORAGE, AK 99519-6900
Phone 907-338-1466
Manager: JASON LANGE/SEAN MONTGOMERY
STATE OF AK - DOTPF, 35200 HOPE HWY
HOPE, AK 99605
Phone 907-288-2428
ALT PH: 907-262-1187.

Airport Operational Statistics

Aircraft based on the field: 11
Single engine airplanes: 11
    
Aircraft operations: avg 40/month *
58% local general aviation
31% transient general aviation
10% air taxi
* for 12-month period ending 31 December 2019

Additional Remarks

BE ALERT RWY CONDITION NOT MONITORED. RECOMMEND VISUAL INSPECTION PRIOR TO LANDING.
SAFETY AREA NORTH END CLEARED 470 FT, SAFETY AREA SOUTH END CLEARED 580 FT.

Instrument Procedures

There are no published instrument procedures at 5HO.

Some nearby airports with instrument procedures:

PANC - Ted Stevens Anchorage International Airport (19 nm NW)
PAMR - Merrill Field Airport (19 nm N)
PAED - Elmendorf Air Force Base (21 nm N)
PAFR - Bryant Army Airfield Heliport (22 nm N)
PAGQ - Big Lake Airport (38 nm N)
 
Loc | Ops | Rwys | IFR | FBO | Links
Com | Nav | Svcs | Stats | Notes

Crowley
 
Area around 5HO (Hope Airport)
 
Road maps at: MapQuest Bing Google
 
Aerial photo
WARNING: Photo may not be current or correct
Aerial photo of 5HO (Hope Airport)
Photo by Jonathan Tack
Photo taken 07-Aug-2006

Do you have a better or more recent aerial photo of Hope Airport that you would like to share? If so, please send us your photo.

 
Sectional chart

 
Airport distance calculator
Flying to Hope Airport? Find the distance to fly.

From to 5HO

Sunrise and sunset
Times for 07-May-2021
 Local
(UTC-8)
 Zulu
(UTC)
Morning civil twilight04:3412:34
Sunrise05:3513:35
Sunset22:1506:15
Evening civil twilight23:1607:16

Current date and time
Zulu (UTC)  07-May-2021 19:31:37
Local (UTC-8)  07-May-2021 11:31:37
 
METAR
PANC 
19nm NW 
071853Z 14007KT 10SM FEW015 BKN050 BKN120 08/04 A2980 RMK AO2 SLP093 T00830039
PALH 
19nm NW 
071853Z 01004KT 10SM OVC065 07/04 A2981 RMK AO2 SLP096 T00720039
PAMR 
20nm N 
071853Z 29004KT 10SM SCT018 BKN050 BKN090 08/02 A2980 RMK AO2 SLP093 T00780022 $
PAED 
21nm N 
071856Z 34005KT 10SM SCT015 BKN043 BKN080 08/04 A2980 RMK AO2A SLP088 T00820036 $
PAFR 
22nm N 
071858Z AUTO 33004KT 10SM FEW009 OVC032 07/05 A2977 RMK AO2 SLP089 T00690048 PNO $
PATO 
24nm E 
071753Z AUTO 14004KT 10SM BKN025 OVC033 05/03 A2984 RMK AO2 SLP104 60000 T00500028 10050 20033 53014 TSNO $
PABV 
31nm N 
071856Z AUTO 03006KT 10SM BKN036 OVC049 08/04 A2982 RMK AO2 SLP103 T00780044
TAF
PANC 
19nm NW 
071731Z 0718/0824 23006KT P6SM VCSH FEW020 BKN080 BKN120 FM072300 16015G25KT P6SM BKN100 FM080600 16008KT P6SM SKC
PAED 
21nm N 
071800Z 0718/0900 19008KT 9999 FEW010 SCT030 BKN080 620803 QNH2979INS BECMG 0720/0721 21009KT 9999 SCT060 QNH2982INS BECMG 0723/0724 22012G18KT 9999 FEW080 QNH2982INS WND 160V250 BECMG 0804/0805 VRB06KT 9999 SCT120 QNH2984INS BECMG 0811/0812 VRB06KT 9999 SCT050 SCT120 520403 QNH2987INS TX12/0800Z TN02/0814Z
NOTAMs
Click for the latest NOTAMs
NOTAMs are issued by the DoD/FAA and will open in a separate window not controlled by AirNav.

 

 
 

Would you like to see your business listed on this page?

 If your business provides an interesting product or service to pilots, flight crews, aircraft, or users of the Hope Airport, you should consider listing it here.  To start the listing process, click on the button below
 
Add a business
 

Other Pages about Hope Airport

Update a link
 
Copyright © AirNav, LLC. All rights reserved. Privacy Policy  Contact